Time;durP1;ratioP1;P1;durP2;ratioP2;P2;SDS_P1;SDS_P2;PMS_P1;PMS_P2;Temp;Humidity;BMP_temperature;BMP_pressure;BME280_temperature;BME280_humidity;BME280_pressure;Samples;Min_cycle;Max_cycle;Signal;HPM_P1;HPM_P2
2022/06/16 00:00:15;;;;;;;7.10;3.65;;;15.10;99.90;;;;;;4823773;29;20100;-60
2022/06/16 00:02:47;;;;;;;7.68;3.20;;;15.10;99.90;;;;;;4807830;29;20054;-60
2022/06/16 00:05:15;;;;;;;7.10;2.72;;;15.00;99.90;;;;;;4823527;29;20049;-59
2022/06/16 00:07:41;;;;;;;6.75;3.38;;;15.00;99.90;;;;;;4823844;29;20062;-59
2022/06/16 00:10:08;;;;;;;6.28;2.83;;;15.00;99.90;;;;;;4807309;29;20051;-59
2022/06/16 00:12:35;;;;;;;6.05;3.15;;;15.00;99.90;;;;;;4823493;29;20496;-60
2022/06/16 00:15:01;;;;;;;7.05;3.13;;;15.00;99.90;;;;;;4792750;29;20058;-60
2022/06/16 00:17:27;;;;;;;6.80;2.92;;;15.00;99.90;;;;;;4807321;29;20056;-60
2022/06/16 00:19:52;;;;;;;7.43;2.90;;;14.90;99.90;;;;;;4823717;29;20050;-61
2022/06/16 00:22:19;;;;;;;6.55;3.00;;;14.90;99.90;;;;;;4823167;29;20101;-60
2022/06/16 00:24:44;;;;;;;6.40;3.40;;;14.90;99.90;;;;;;4807430;29;20050;-59
2022/06/16 00:27:10;;;;;;;6.78;2.88;;;14.90;99.90;;;;;;4823237;29;20061;-59
2022/06/16 00:29:39;;;;;;;7.55;3.00;;;14.90;99.90;;;;;;4823607;29;20062;-60
2022/06/16 00:32:05;;;;;;;6.35;2.95;;;14.80;99.90;;;;;;4823547;29;20524;-65
2022/06/16 00:34:31;;;;;;;6.57;3.15;;;14.80;99.90;;;;;;4823170;29;20054;-61
2022/06/16 00:36:57;;;;;;;8.75;3.67;;;14.80;99.90;;;;;;4823474;29;20047;-60
2022/06/16 00:39:23;;;;;;;5.82;3.30;;;14.80;99.90;;;;;;4822929;29;20501;-61
2022/06/16 00:41:49;;;;;;;5.93;3.00;;;14.70;99.90;;;;;;4823493;29;20046;-59
2022/06/16 00:44:25;;;;;;;6.00;3.40;;;14.70;99.90;;;;;;4822981;29;20102;-60
2022/06/16 00:46:51;;;;;;;5.13;3.10;;;14.70;99.90;;;;;;4823602;29;20050;-61
2022/06/16 00:49:17;;;;;;;5.05;3.40;;;14.70;99.90;;;;;;4806537;29;20050;-61
2022/06/16 00:51:50;;;;;;;7.50;3.80;;;14.70;99.90;;;;;;4806994;29;20050;-59
2022/06/16 00:54:22;;;;;;;4.82;3.03;;;14.70;99.90;;;;;;4822871;29;20222;-59
2022/06/16 00:56:51;;;;;;;5.40;3.22;;;14.70;99.90;;;;;;4807001;29;20050;-59
2022/06/16 00:59:19;;;;;;;5.43;3.33;;;14.60;99.90;;;;;;4806390;29;20085;-59
2022/06/16 01:01:47;;;;;;;7.70;3.75;;;14.60;99.90;;;;;;4823259;29;20046;-59
2022/06/16 01:07:00;;;;;;;6.43;3.30;;;14.50;99.90;;;;;;4822910;29;20485;-61
2022/06/16 01:09:33;;;;;;;6.60;3.60;;;14.50;99.90;;;;;;4822625;29;20105;-60
2022/06/16 01:15:27;;;;;;;7.60;3.88;;;14.40;99.90;;;;;;4822721;29;20057;-60
2022/06/16 01:18:25;;;;;;;6.72;3.60;;;14.40;99.90;;;;;;4822648;29;20050;-61
2022/06/16 01:20:54;;;;;;;6.07;3.90;;;14.40;99.90;;;;;;4806540;29;20054;-59
2022/06/16 01:23:49;;;;;;;6.85;3.85;;;14.40;99.90;;;;;;4822694;29;20252;-61
2022/06/16 01:26:52;;;;;;;6.32;3.47;;;14.40;99.90;;;;;;4806251;29;20145;-61
2022/06/16 01:29:43;;;;;;;6.88;3.50;;;14.40;99.90;;;;;;4791342;29;20066;-63
2022/06/16 01:32:17;;;;;;;7.13;4.05;;;14.30;99.90;;;;;;4806174;29;20553;-59
2022/06/16 01:34:46;;;;;;;;;;;14.30;99.90;;;;;;4806749;29;20046;-60
2022/06/16 01:37:17;;;;;;;7.22;4.00;;;14.40;99.90;;;;;;4822259;29;20396;-62
2022/06/16 01:40:08;;;;;;;7.85;3.80;;;14.40;99.90;;;;;;4806351;29;20054;-60
2022/06/16 01:42:44;;;;;;;8.13;3.78;;;14.40;99.90;;;;;;4795372;29;20054;-61
2022/06/16 01:45:17;;;;;;;5.75;3.55;;;14.30;99.90;;;;;;4822774;29;20512;-60
2022/06/16 01:47:48;;;;;;;9.30;3.53;;;14.20;99.90;;;;;;4826336;29;20068;-59
2022/06/16 01:50:20;;;;;;;6.22;3.83;;;14.10;99.90;;;;;;4826319;29;20477;-66
2022/06/16 01:52:57;;;;;;;7.95;3.55;;;14.10;99.90;;;;;;4826341;29;20072;-61
2022/06/16 01:55:29;;;;;;;7.10;3.90;;;14.10;99.90;;;;;;4794901;29;20077;-59
2022/06/16 01:58:06;;;;;;;6.57;3.58;;;14.10;99.90;;;;;;4826188;29;20076;-60
2022/06/16 02:00:33;;;;;;;7.22;3.83;;;14.10;99.90;;;;;;4825593;29;20524;-60
2022/06/16 02:03:10;;;;;;;4.72;3.13;;;14.20;99.90;;;;;;4825552;29;20058;-59
2022/06/16 02:05:41;;;;;;;10.43;4.13;;;14.20;99.90;;;;;;4809440;29;20055;-59
2022/06/16 02:08:16;;;;;;;6.30;3.30;;;14.20;99.90;;;;;;4825799;29;20065;-60
2022/06/16 02:10:46;;;;;;;8.05;3.72;;;14.30;99.90;;;;;;4825992;29;20132;-59
2022/06/16 02:13:16;;;;;;;6.18;3.05;;;14.20;99.90;;;;;;4826129;29;20054;-60
2022/06/16 02:15:54;;;;;;;6.85;3.60;;;14.30;99.90;;;;;;4825032;29;20046;-61
2022/06/16 02:18:25;;;;;;;6.28;3.33;;;14.30;99.90;;;;;;4825379;29;20055;-61
2022/06/16 02:20:59;;;;;;;5.95;3.55;;;14.30;99.90;;;;;;4825246;29;20497;-60
2022/06/16 02:23:25;;;;;;;7.25;3.58;;;14.30;99.90;;;;;;4825077;29;20096;-60
2022/06/16 02:25:55;;;;;;;6.43;3.10;;;14.30;99.90;;;;;;4825315;29;20115;-60
2022/06/16 02:28:21;;;;;;;7.40;3.40;;;14.40;99.90;;;;;;4825261;29;20050;-66
2022/06/16 02:30:50;;;;;;;5.78;3.28;;;14.30;99.90;;;;;;4809244;29;20058;-60
2022/06/16 02:33:36;;;;;;;6.15;3.03;;;14.40;99.90;;;;;;4809481;29;20050;-60
2022/06/16 02:36:10;;;;;;;7.63;3.35;;;14.40;99.90;;;;;;4809298;29;20129;-59
2022/06/16 02:38:52;;;;;;;7.05;2.92;;;14.40;99.90;;;;;;4825179;29;20448;-61
2022/06/16 02:41:46;;;;;;;6.28;2.88;;;14.30;99.90;;;;;;4825300;29;20131;-60
2022/06/16 02:44:24;;;;;;;6.18;3.05;;;14.30;99.90;;;;;;4825377;29;20058;-59
2022/06/16 02:46:59;;;;;;;5.88;3.35;;;14.30;99.90;;;;;;4825385;29;20055;-62
2022/06/16 02:49:55;;;;;;;5.90;3.28;;;14.20;99.90;;;;;;4824977;29;20050;-62
2022/06/16 02:52:40;;;;;;;6.40;2.60;;;14.20;99.90;;;;;;4825182;29;20058;-60
2022/06/16 02:55:25;;;;;;;5.57;3.28;;;14.20;99.90;;;;;;4825068;29;20110;-60
2022/06/16 02:57:52;;;;;;;;;;;14.20;99.90;;;;;;4794166;29;20382;-61
2022/06/16 03:00:23;;;;;;;7.47;3.17;;;14.10;99.90;;;;;;4824922;29;19981;-61
2022/06/16 03:02:49;;;;;;;6.57;3.00;;;14.10;99.90;;;;;;4824838;29;20054;-60
2022/06/16 03:05:16;;;;;;;6.22;2.90;;;14.10;99.90;;;;;;4824686;29;20054;-61
2022/06/16 03:07:43;;;;;;;5.75;2.85;;;14.10;99.90;;;;;;4824556;29;20108;-60
2022/06/16 03:10:11;;;;;;;7.03;2.90;;;14.00;99.90;;;;;;4824601;29;20050;-63
2022/06/16 03:12:38;;;;;;;5.80;2.83;;;14.10;99.90;;;;;;4824223;29;20138;-60
2022/06/16 03:15:04;;;;;;;6.57;2.92;;;14.10;99.90;;;;;;4808409;29;20133;-61
2022/06/16 03:17:31;;;;;;;6.43;2.83;;;14.00;99.90;;;;;;4824184;29;20068;-60
2022/06/16 03:19:58;;;;;;;8.40;3.30;;;14.00;99.90;;;;;;4824586;29;20058;-60
2022/06/16 03:22:24;;;;;;;5.57;3.22;;;14.00;99.90;;;;;;4824275;29;20458;-60
2022/06/16 03:24:50;;;;;;;7.03;2.83;;;14.00;99.90;;;;;;4807677;29;20447;-60
2022/06/16 03:27:17;;;;;;;6.80;3.00;;;14.00;99.90;;;;;;4793510;29;20119;-62
2022/06/16 03:29:42;;;;;;;8.52;3.40;;;14.00;99.90;;;;;;4824314;29;20425;-60
2022/06/16 03:32:08;;;;;;;6.22;3.05;;;14.00;99.90;;;;;;4824450;29;20046;-60
2022/06/16 03:34:34;;;;;;;11.05;3.95;;;14.00;99.90;;;;;;4792960;29;20050;-60
2022/06/16 03:37:00;;;;;;;6.05;3.38;;;14.10;99.90;;;;;;4808308;29;20113;-59
2022/06/16 03:39:26;;;;;;;6.30;3.47;;;14.00;99.90;;;;;;4824355;29;20062;-59
2022/06/16 03:41:51;;;;;;;6.55;3.17;;;14.00;99.90;;;;;;4823971;29;20492;-58
2022/06/16 03:44:17;;;;;;;5.90;3.25;;;14.00;99.90;;;;;;4823107;29;20577;-59
2022/06/16 03:46:43;;;;;;;8.68;3.17;;;14.10;99.90;;;;;;4823744;29;20053;-59
2022/06/16 03:49:09;;;;;;;10.30;3.25;;;14.10;99.90;;;;;;4824154;29;20054;-60
2022/06/16 03:51:35;;;;;;;6.13;3.35;;;14.00;99.90;;;;;;4807544;29;20097;-60
2022/06/16 03:54:01;;;;;;;6.13;2.92;;;14.00;99.90;;;;;;4807930;29;20121;-60
2022/06/16 03:56:27;;;;;;;8.25;3.25;;;14.00;99.90;;;;;;4807793;29;20054;-60
2022/06/16 03:58:55;;;;;;;6.75;3.17;;;14.00;99.90;;;;;;4823763;29;20054;-59
2022/06/16 04:01:21;;;;;;;7.93;3.58;;;14.10;99.90;;;;;;4823933;29;20189;-63
2022/06/16 04:04:01;;;;;;;6.95;3.13;;;14.10;99.90;;;;;;4823658;29;20046;-60
2022/06/16 04:06:31;;;;;;;8.82;3.50;;;14.10;99.90;;;;;;4807498;29;20050;-61
2022/06/16 04:08:57;;;;;;;6.93;3.75;;;14.20;99.90;;;;;;4822928;29;20548;-61
2022/06/16 04:11:30;;;;;;;6.13;3.67;;;14.20;99.90;;;;;;4823511;29;20501;-60
2022/06/16 04:14:00;;;;;;;5.35;3.88;;;14.20;99.90;;;;;;4807325;29;20062;-59
2022/06/16 04:16:27;;;;;;;6.90;3.45;;;14.20;99.90;;;;;;4807581;29;20312;-59
2022/06/16 04:18:53;;;;;;;8.18;3.60;;;14.20;99.90;;;;;;4823199;29;20046;-59
2022/06/16 04:21:19;;;;;;;8.95;4.40;;;14.20;99.90;;;;;;4823420;29;20424;-59
2022/06/16 04:23:45;;;;;;;5.95;3.38;;;14.20;99.90;;;;;;4806739;29;20112;-59
2022/06/16 04:26:11;;;;;;;8.00;4.10;;;14.20;99.90;;;;;;4807346;29;20066;-60
2022/06/16 04:28:36;;;;;;;8.45;4.03;;;14.20;99.90;;;;;;4823118;29;20085;-59
2022/06/16 04:31:02;;;;;;;7.97;4.40;;;14.20;99.90;;;;;;4823550;29;20054;-59
2022/06/16 04:33:28;;;;;;;7.13;3.80;;;14.20;99.90;;;;;;4823397;29;20130;-61
2022/06/16 04:35:54;;;;;;;7.82;3.97;;;14.20;99.90;;;;;;4823016;29;20440;-60
2022/06/16 04:38:20;;;;;;;7.68;4.25;;;14.20;99.90;;;;;;4823222;29;20091;-60
2022/06/16 04:40:46;;;;;;;5.78;3.85;;;14.20;99.90;;;;;;4822961;29;20054;-59
2022/06/16 04:43:15;;;;;;;6.53;3.97;;;14.30;99.90;;;;;;4823298;29;20509;-59
2022/06/16 04:45:41;;;;;;;8.25;4.07;;;14.50;99.90;;;;;;4806558;29;20115;-59
2022/06/16 04:48:08;;;;;;;7.57;3.90;;;14.60;99.90;;;;;;4823211;29;20050;-60
2022/06/16 04:50:35;;;;;;;9.82;4.25;;;14.80;99.90;;;;;;4823159;29;20050;-59
2022/06/16 04:53:00;;;;;;;6.38;3.35;;;15.10;99.90;;;;;;4822793;29;20046;-60
2022/06/16 04:55:27;;;;;;;7.70;3.03;;;16.00;99.90;;;;;;4806915;29;20149;-60
2022/06/16 04:57:54;;;;;;;9.10;3.63;;;16.90;99.90;;;;;;4822672;29;20467;-59
2022/06/16 05:00:21;;;;;;;6.28;3.20;;;17.90;99.90;;;;;;4806866;29;20134;-59
2022/06/16 05:02:47;;;;;;;7.10;3.65;;;18.90;99.90;;;;;;4806394;29;20570;-60
2022/06/16 05:05:13;;;;;;;7.57;3.15;;;19.80;99.90;;;;;;4822775;29;20133;-59
2022/06/16 05:07:39;;;;;;;4.57;2.60;;;20.60;99.90;;;;;;4822782;29;20054;-66
2022/06/16 05:10:06;;;;;;;4.85;2.83;;;21.40;99.90;;;;;;4822654;29;20057;-60
2022/06/16 05:12:31;;;;;;;6.05;2.50;;;22.30;99.90;;;;;;4822695;29;20054;-60
2022/06/16 05:14:57;;;;;;;6.45;2.50;;;22.90;98.50;;;;;;4822059;29;20054;-59
2022/06/16 05:17:23;;;;;;;7.47;2.15;;;23.40;97.70;;;;;;4822826;29;20062;-59
2022/06/16 05:19:48;;;;;;;6.38;2.38;;;24.00;96.30;;;;;;4822377;29;20121;-61
2022/06/16 05:22:14;;;;;;;4.68;2.33;;;24.40;95.60;;;;;;4822697;29;20058;-61
2022/06/16 05:24:40;;;;;;;4.35;2.00;;;24.80;95.40;;;;;;4822489;29;20055;-60
2022/06/16 05:27:06;;;;;;;5.05;2.65;;;25.10;93.90;;;;;;4821754;29;20065;-59
2022/06/16 05:29:32;;;;;;;5.53;2.42;;;25.10;94.00;;;;;;4822623;29;20480;-60
2022/06/16 05:31:59;;;;;;;6.35;2.38;;;25.00;94.20;;;;;;4822013;29;20133;-60
2022/06/16 05:34:24;;;;;;;5.65;2.35;;;25.00;94.20;;;;;;4806328;29;20112;-60
2022/06/16 05:36:50;;;;;;;3.33;1.90;;;25.10;94.10;;;;;;4822270;29;20459;-63
2022/06/16 05:39:16;;;;;;;6.68;2.50;;;25.10;94.50;;;;;;4805759;29;20054;-61
2022/06/16 05:41:42;;;;;;;5.63;2.15;;;24.80;93.30;;;;;;4822058;29;20050;-61
2022/06/16 05:44:11;;;;;;;5.18;2.08;;;24.60;93.40;;;;;;4821912;29;20057;-60
2022/06/16 05:46:37;;;;;;;3.83;2.13;;;24.70;93.30;;;;;;4821767;29;20046;-60
2022/06/16 05:49:04;;;;;;;4.28;1.90;;;24.80;94.20;;;;;;4821823;29;20137;-61
2022/06/16 05:51:30;;;;;;;4.97;1.73;;;24.90;92.90;;;;;;4805909;29;20054;-60
2022/06/16 05:53:55;;;;;;;3.72;1.63;;;25.10;92.60;;;;;;4805450;29;20047;-60
2022/06/16 05:56:21;;;;;;;4.22;1.83;;;25.50;93.50;;;;;;4822330;29;20119;-60
2022/06/16 05:58:47;;;;;;;4.35;1.80;;;25.60;92.30;;;;;;4805461;29;20551;-67
2022/06/16 06:01:13;;;;;;;3.97;1.50;;;25.50;92.00;;;;;;4822398;29;20065;-60
2022/06/16 06:03:41;;;;;;;3.92;1.60;;;26.10;93.00;;;;;;4822349;29;20051;-62
2022/06/16 06:06:07;;;;;;;4.82;1.83;;;26.50;92.80;;;;;;4805730;29;20235;-60
2022/06/16 06:16:55;;;;;;;3.83;1.77;;;27.70;90.00;;;;;;4822018;29;20054;-61
2022/06/16 06:19:24;;;;;;;4.43;1.60;;;27.80;89.70;;;;;;4805867;29;20051;-61
2022/06/16 06:22:09;;;;;;;5.47;1.73;;;28.00;89.00;;;;;;4805695;29;20469;-67
2022/06/16 06:24:39;;;;;;;7.00;1.55;;;28.30;87.50;;;;;;4822063;29;20462;-61
2022/06/16 06:27:15;;;;;;;3.75;1.83;;;28.30;86.90;;;;;;4821812;29;20413;-60
2022/06/16 06:29:43;;;;;;;4.85;1.55;;;28.50;85.90;;;;;;4822082;29;20050;-60
2022/06/16 06:32:09;;;;;;;6.20;1.52;;;28.60;85.30;;;;;;4823336;29;20046;-60
2022/06/16 06:34:36;;;;;;;3.33;1.23;;;28.50;84.80;;;;;;4825123;29;20448;-60
2022/06/16 06:37:03;;;;;;;2.50;1.23;;;28.30;83.50;;;;;;4823565;29;20120;-61
2022/06/16 06:39:28;;;;;;;4.65;1.15;;;28.40;82.70;;;;;;4824899;29;20516;-60
2022/06/16 06:41:54;;;;;;;2.95;1.40;;;28.60;82.00;;;;;;4824528;29;20054;-61
2022/06/16 06:44:20;;;;;;;2.75;1.38;;;28.90;81.90;;;;;;4809075;29;20046;-61
2022/06/16 06:46:46;;;;;;;3.05;1.40;;;28.90;81.70;;;;;;4808596;29;20054;-61
2022/06/16 06:49:11;;;;;;;4.72;1.40;;;28.60;80.80;;;;;;4824621;29;20061;-61
2022/06/16 06:51:37;;;;;;;3.15;1.33;;;28.60;80.10;;;;;;4824673;29;20054;-63
2022/06/16 06:54:03;;;;;;;3.40;1.27;;;28.80;80.80;;;;;;4824593;29;20442;-61
2022/06/16 06:56:30;;;;;;;3.58;1.17;;;29.00;79.00;;;;;;4808525;29;20061;-61
2022/06/16 06:58:58;;;;;;;4.05;1.40;;;29.20;79.80;;;;;;4808135;29;20058;-61
2022/06/16 07:01:24;;;;;;;3.47;1.40;;;29.50;78.20;;;;;;4808673;29;20077;-61
2022/06/16 07:03:50;;;;;;;2.47;1.10;;;29.60;77.60;;;;;;4808477;29;20054;-62
2022/06/16 07:06:18;;;;;;;2.53;1.23;;;29.80;77.60;;;;;;4824198;29;20054;-62
2022/06/16 07:08:44;;;;;;;2.88;1.48;;;29.90;76.00;;;;;;4824504;29;20128;-62
2022/06/16 07:11:11;;;;;;;3.00;1.13;;;29.90;75.10;;;;;;4824164;29;20138;-62
2022/06/16 07:13:37;;;;;;;3.28;1.33;;;29.70;75.70;;;;;;4808327;29;20093;-63
2022/06/16 07:16:02;;;;;;;3.17;1.33;;;30.00;76.30;;;;;;4808165;29;20102;-62
2022/06/16 07:18:28;;;;;;;3.38;1.20;;;30.40;75.80;;;;;;4824642;29;20150;-63
2022/06/16 07:20:54;;;;;;;2.85;1.10;;;30.30;72.20;;;;;;4824636;29;20142;-60
2022/06/16 07:23:20;;;;;;;3.60;1.27;;;30.40;72.10;;;;;;4824336;29;20058;-61
2022/06/16 07:25:50;;;;;;;2.53;1.33;;;30.60;72.30;;;;;;4824629;29;20054;-61
2022/06/16 07:28:17;;;;;;;3.50;1.00;;;30.80;70.90;;;;;;4824209;29;20054;-61
2022/06/16 07:30:43;;;;;;;3.03;1.20;;;30.60;72.20;;;;;;4824641;29;20050;-62
2022/06/16 07:33:12;;;;;;;4.80;1.38;;;30.60;73.30;;;;;;4824004;29;20462;-62
2022/06/16 07:35:41;;;;;;;2.63;1.40;;;30.70;72.10;;;;;;4824529;29;20090;-61
2022/06/16 07:38:08;;;;;;;4.43;1.90;;;31.10;74.00;;;;;;4823882;29;20054;-62
2022/06/16 07:40:34;;;;;;;1.92;1.02;;;31.40;74.10;;;;;;4824246;29;20090;-62
2022/06/16 07:43:00;;;;;;;7.18;1.77;;;31.60;73.40;;;;;;4823103;29;20097;-68
2022/06/16 07:45:27;;;;;;;4.03;1.52;;;31.90;73.10;;;;;;4824119;29;20065;-60
2022/06/16 07:47:54;;;;;;;3.90;1.40;;;32.00;72.50;;;;;;4824122;29;20050;-61
2022/06/16 07:50:20;;;;;;;3.72;1.40;;;32.00;71.40;;;;;;4823932;29;20057;-61
2022/06/16 07:52:46;;;;;;;4.15;1.45;;;31.80;70.90;;;;;;4792852;29;20148;-61
2022/06/16 07:55:12;;;;;;;3.90;1.40;;;31.80;71.60;;;;;;4807325;29;20047;-62
2022/06/16 07:57:45;;;;;;;4.10;1.48;;;31.40;70.30;;;;;;4823932;29;20061;-60
2022/06/16 08:00:15;;;;;;;4.28;1.45;;;31.10;69.70;;;;;;4823411;29;20562;-61
2022/06/16 08:02:40;;;;;;;2.72;1.08;;;31.60;71.20;;;;;;4823776;29;20103;-61
2022/06/16 08:05:07;;;;;;;4.22;1.52;;;31.40;69.30;;;;;;4823099;29;20053;-61
2022/06/16 08:07:34;;;;;;;2.55;1.23;;;31.60;69.30;;;;;;4807256;29;20054;-61
2022/06/16 08:10:00;;;;;;;3.95;1.30;;;32.00;70.60;;;;;;4823660;29;20118;-61
2022/06/16 08:12:26;;;;;;;3.22;1.30;;;32.00;69.50;;;;;;4806853;29;20046;-62
2022/06/16 08:14:52;;;;;;;2.90;1.50;;;31.20;68.80;;;;;;4823635;29;20061;-61
2022/06/16 08:17:27;;;;;;;5.43;1.58;;;31.00;67.90;;;;;;4823219;29;20054;-61
2022/06/16 08:19:54;;;;;;;4.30;1.48;;;31.30;68.40;;;;;;4823644;29;20073;-61
2022/06/16 08:22:21;;;;;;;3.75;1.30;;;31.60;68.80;;;;;;4823012;29;20050;-63
2022/06/16 08:24:47;;;;;;;3.38;1.50;;;31.40;68.40;;;;;;4806860;29;20134;-62
2022/06/16 08:27:14;;;;;;;3.33;1.30;;;31.80;68.30;;;;;;4823017;29;20110;-61
2022/06/16 08:29:43;;;;;;;3.63;1.60;;;32.10;67.60;;;;;;4823280;29;20065;-60
2022/06/16 08:32:09;;;;;;;5.70;1.75;;;32.20;67.60;;;;;;4806623;29;20079;-65
2022/06/16 08:34:36;;;;;;;2.90;1.48;;;31.90;66.70;;;;;;4823187;29;20050;-62
2022/06/16 08:37:02;;;;;;;3.45;1.33;;;31.50;67.50;;;;;;4806704;29;20047;-61
2022/06/16 08:39:27;;;;;;;2.90;1.30;;;31.80;67.70;;;;;;4823011;29;20077;-61
2022/06/16 08:42:18;;;;;;;3.58;1.60;;;32.30;66.70;;;;;;4822753;29;20405;-61
2022/06/16 08:45:08;;;;;;;3.58;1.67;;;32.60;67.40;;;;;;4822970;29;20046;-61
2022/06/16 08:47:56;;;;;;;3.10;1.40;;;33.10;65.20;;;;;;4823176;29;20108;-62
2022/06/16 08:50:40;;;;;;;3.92;1.60;;;33.00;66.40;;;;;;4822501;29;20118;-62
2022/06/16 08:53:18;;;;;;;4.72;1.60;;;32.40;66.80;;;;;;4822744;29;20054;-65
2022/06/16 08:55:53;;;;;;;2.53;1.60;;;31.60;66.60;;;;;;4806313;29;20062;-67
2022/06/16 08:58:28;;;;;;;3.60;1.50;;;31.00;67.10;;;;;;4822163;29;20137;-61
2022/06/16 09:00:58;;;;;;;3.97;1.85;;;30.70;67.40;;;;;;4822834;29;20282;-61
2022/06/16 09:03:41;;;;;;;3.53;1.45;;;29.60;66.50;;;;;;4822238;29;20046;-62
2022/06/16 09:06:15;;;;;;;3.67;1.75;;;29.30;67.80;;;;;;4822801;29;20097;-61
2022/06/16 09:10:14;;;;;;;3.95;1.50;;;28.90;68.00;;;;;;4822744;29;20054;-62
2022/06/16 09:12:34;;;;;;;3.53;1.60;;;28.70;68.50;;;;;;4822411;29;20512;-62
2022/06/16 09:15:11;;;;;;;;;;;28.40;68.30;;;;;;4823338;29;20050;-62
2022/06/16 09:18:01;;;;;;;4.40;1.80;;;28.00;69.60;;;;;;4822471;29;19925;-61
2022/06/16 09:21:01;;;;;;;3.10;1.67;;;28.30;70.50;;;;;;4822450;29;20142;-62
2022/06/16 09:24:04;;;;;;;5.70;1.83;;;28.80;71.60;;;;;;4822454;29;20091;-62
2022/06/16 09:26:46;;;;;;;3.03;1.50;;;29.00;70.00;;;;;;4806291;29;20064;-61
2022/06/16 09:29:24;;;;;;;5.47;1.70;;;28.70;70.60;;;;;;4822718;29;20576;-63
2022/06/16 09:31:57;;;;;;;4.90;1.80;;;28.30;71.20;;;;;;4806233;29;20050;-60
2022/06/16 09:34:33;;;;;;;4.65;1.95;;;27.90;70.80;;;;;;4822332;29;20098;-63
2022/06/16 09:37:06;;;;;;;3.35;2.00;;;28.20;70.90;;;;;;4822461;29;20054;-62
2022/06/16 09:39:39;;;;;;;3.15;1.73;;;28.30;70.40;;;;;;4822166;29;20046;-61
2022/06/16 09:45:04;;;;;;;5.63;2.20;;;28.90;71.60;;;;;;4822626;29;19997;-62
2022/06/16 09:47:47;;;;;;;4.85;1.85;;;28.80;70.20;;;;;;4822238;29;20054;-61
2022/06/16 09:50:21;;;;;;;2.45;1.50;;;28.60;70.60;;;;;;4822644;29;20050;-65
2022/06/16 09:53:12;;;;;;;2.85;1.55;;;29.10;70.90;;;;;;4822532;29;20054;-63
2022/06/16 09:56:00;;;;;;;5.72;1.80;;;29.00;69.90;;;;;;4805314;29;20677;-61
2022/06/16 09:58:33;;;;;;;3.10;1.63;;;29.20;68.90;;;;;;4784092;29;20069;-61
2022/06/16 10:01:02;;;;;;;;;;;28.90;70.70;;;;;;4822469;29;20509;-62
2022/06/16 10:03:34;;;;;;;3.58;2.08;;;29.10;71.10;;;;;;4821818;29;19924;-63
2022/06/16 10:06:06;;;;;;;4.45;2.13;;;28.70;70.80;;;;;;4822498;29;20100;-62
2022/06/16 10:08:50;;;;;;;4.20;2.00;;;28.10;70.00;;;;;;4825580;29;20447;-63
2022/06/16 10:11:26;;;;;;;4.25;1.80;;;27.90;69.50;;;;;;4809827;29;20076;-63
2022/06/16 10:14:24;;;;;;;4.93;2.10;;;27.80;71.00;;;;;;4794718;29;20058;-62
2022/06/16 10:16:56;;;;;;;5.53;2.53;;;27.70;68.80;;;;;;4784978;29;20062;-61
2022/06/16 10:19:26;;;;;;;4.57;2.08;;;27.70;68.90;;;;;;4825302;29;20490;-61
2022/06/16 10:21:52;;;;;;;4.25;1.98;;;27.60;69.80;;;;;;4825397;29;20070;-64
2022/06/16 10:24:23;;;;;;;3.97;2.00;;;27.30;69.40;;;;;;4809313;29;20061;-61
2022/06/16 10:26:49;;;;;;;5.25;2.40;;;26.90;69.90;;;;;;4825707;29;20149;-63
2022/06/16 10:29:26;;;;;;;5.30;2.17;;;26.80;70.50;;;;;;4825494;29;20140;-62
2022/06/16 10:31:55;;;;;;;4.75;2.40;;;26.80;70.70;;;;;;4825500;29;20054;-62
2022/06/16 10:34:39;;;;;;;4.93;2.15;;;26.90;69.60;;;;;;4825642;29;20100;-61
2022/06/16 10:37:14;;;;;;;;;;;26.90;70.90;;;;;;4809332;29;20047;-63
2022/06/16 10:39:46;;;;;;;4.47;2.33;;;26.70;70.10;;;;;;4825091;29;19924;-62
2022/06/16 10:42:15;;;;;;;3.92;2.20;;;26.70;70.00;;;;;;4809009;29;20057;-62
2022/06/16 10:44:48;;;;;;;4.57;2.20;;;26.80;70.40;;;;;;4825067;29;20072;-61
2022/06/16 10:47:24;;;;;;;5.20;2.25;;;26.70;71.90;;;;;;4824999;29;20065;-64
2022/06/16 10:49:51;;;;;;;2.75;1.90;;;26.60;71.20;;;;;;4825052;29;20434;-62
2022/06/16 10:52:32;;;;;;;5.82;2.53;;;26.70;72.00;;;;;;4808711;29;20094;-61
2022/06/16 10:55:05;;;;;;;4.90;2.05;;;26.80;71.20;;;;;;4825005;29;20043;-62
2022/06/16 10:57:40;;;;;;;5.35;2.30;;;26.70;70.70;;;;;;4824774;29;20061;-61
2022/06/16 11:00:14;;;;;;;4.47;2.40;;;26.60;70.80;;;;;;4824935;29;20094;-61
2022/06/16 11:02:57;;;;;;;5.15;2.13;;;26.50;71.00;;;;;;4824542;29;20061;-62
2022/06/16 11:05:23;;;;;;;5.40;2.15;;;26.50;71.90;;;;;;4808318;29;20198;-61
2022/06/16 11:07:49;;;;;;;3.72;2.00;;;26.40;71.20;;;;;;4824514;29;20099;-59
2022/06/16 11:10:37;;;;;;;5.88;2.42;;;26.20;72.50;;;;;;4824434;29;20508;-61
2022/06/16 11:13:04;;;;;;;4.15;2.22;;;26.00;71.80;;;;;;4823934;29;20062;-62
2022/06/16 11:15:38;;;;;;;3.80;2.10;;;25.80;71.90;;;;;;4808360;29;20083;-64
2022/06/16 11:18:07;;;;;;;4.75;2.00;;;25.90;73.00;;;;;;4824575;29;20047;-62
2022/06/16 11:20:39;;;;;;;4.97;1.80;;;26.10;72.20;;;;;;4824270;29;20642;-62
2022/06/16 11:23:26;;;;;;;3.88;2.28;;;26.40;72.20;;;;;;4824525;29;20585;-61
2022/06/16 11:26:16;;;;;;;5.00;2.40;;;26.90;70.30;;;;;;4824199;29;20050;-62
2022/06/16 11:28:47;;;;;;;3.58;2.10;;;26.80;70.00;;;;;;4807483;29;20501;-61
2022/06/16 11:31:21;;;;;;;4.93;2.10;;;26.80;71.00;;;;;;4824358;29;20557;-62
2022/06/16 11:34:07;;;;;;;5.13;2.22;;;26.60;71.00;;;;;;4824303;29;20389;-67
2022/06/16 11:37:00;;;;;;;4.10;2.17;;;26.40;69.00;;;;;;4824211;29;20058;-62
2022/06/16 11:39:53;;;;;;;4.28;2.10;;;26.40;69.70;;;;;;4824540;29;20058;-62
2022/06/16 11:42:59;;;;;;;4.25;2.05;;;26.20;70.70;;;;;;4824161;29;20068;-62
2022/06/16 11:45:53;;;;;;;3.97;2.00;;;26.20;70.50;;;;;;4824409;29;20047;-62
2022/06/16 11:48:37;;;;;;;5.57;2.40;;;26.30;69.80;;;;;;4808223;29;20463;-61
2022/06/16 11:51:18;;;;;;;2.80;2.00;;;26.10;71.60;;;;;;4807060;29;20054;-63
2022/06/16 11:54:26;;;;;;;5.50;2.35;;;26.10;72.70;;;;;;4823586;29;20047;-62
2022/06/16 11:57:03;;;;;;;5.18;2.10;;;26.10;72.10;;;;;;4824006;29;20051;-64
2022/06/16 12:00:04;;;;;;;3.92;1.90;;;26.00;71.00;;;;;;4824161;29;20129;-62
2022/06/16 12:02:39;;;;;;;8.68;2.35;;;26.20;71.70;;;;;;4824076;29;20050;-63
2022/06/16 12:05:28;;;;;;;3.40;1.92;;;26.50;71.40;;;;;;4823955;29;20086;-62
2022/06/16 12:08:14;;;;;;;5.45;2.33;;;26.70;71.50;;;;;;4823647;29;20462;-62
2022/06/16 12:10:50;;;;;;;4.63;2.05;;;26.60;69.70;;;;;;4823630;29;20126;-62
2022/06/16 12:13:30;;;;;;;4.95;2.03;;;26.60;70.50;;;;;;4823987;29;20125;-61
2022/06/16 12:15:59;;;;;;;5.43;2.10;;;26.40;70.40;;;;;;4823670;29;20084;-62
2022/06/16 12:18:41;;;;;;;5.95;2.25;;;26.30;70.80;;;;;;4823956;29;20378;-61
2022/06/16 12:21:25;;;;;;;4.45;2.20;;;26.40;71.70;;;;;;4823851;29;20119;-61
2022/06/16 12:24:10;;;;;;;;;;;26.40;70.70;;;;;;4823454;29;20094;-61
2022/06/16 12:27:02;;;;;;;5.95;2.40;;;26.20;70.60;;;;;;4823748;29;19921;-61
2022/06/16 12:29:37;;;;;;;5.18;1.83;;;26.20;72.00;;;;;;4823007;29;20469;-61
2022/06/16 12:32:11;;;;;;;4.15;1.95;;;26.40;72.10;;;;;;4823766;29;20355;-60
2022/06/16 12:34:56;;;;;;;3.47;1.92;;;26.60;71.30;;;;;;4823825;29;20046;-62
2022/06/16 12:37:26;;;;;;;6.38;2.38;;;26.70;71.60;;;;;;4823856;29;20057;-61
2022/06/16 12:40:09;;;;;;;4.18;2.13;;;26.40;71.80;;;;;;4823510;29;20053;-61
2022/06/16 12:42:51;;;;;;;5.33;2.10;;;26.50;72.60;;;;;;4823256;29;20179;-61
2022/06/16 12:45:35;;;;;;;4.13;1.90;;;26.70;71.80;;;;;;4823246;29;20054;-62
2022/06/16 12:48:11;;;;;;;5.30;1.98;;;26.80;72.60;;;;;;4823197;29;20401;-60
2022/06/16 12:50:40;;;;;;;3.75;2.15;;;26.60;72.10;;;;;;4823544;29;20061;-60
2022/06/16 12:53:29;;;;;;;5.70;2.25;;;26.30;72.10;;;;;;4823239;29;20128;-60
2022/06/16 12:56:03;;;;;;;3.65;1.75;;;26.20;72.80;;;;;;4806967;29;20114;-61
2022/06/16 12:58:41;;;;;;;4.47;2.20;;;25.90;73.10;;;;;;4807188;29;20123;-62
2022/06/16 13:01:11;;;;;;;3.55;1.83;;;25.60;73.30;;;;;;4823254;29;20062;-62
2022/06/16 13:04:00;;;;;;;3.92;2.08;;;25.50;73.90;;;;;;4823182;29;20475;-62
2022/06/16 13:06:27;;;;;;;5.50;2.22;;;25.50;73.60;;;;;;4807063;29;20444;-62
2022/06/16 13:08:57;;;;;;;4.63;2.30;;;25.60;73.90;;;;;;4822833;29;20479;-62
2022/06/16 13:11:29;;;;;;;4.13;2.25;;;25.60;73.20;;;;;;4822872;29;20058;-61
2022/06/16 13:14:03;;;;;;;5.15;2.30;;;25.40;73.60;;;;;;4791556;29;20089;-61
2022/06/16 13:16:32;;;;;;;3.50;1.98;;;25.60;74.60;;;;;;4806586;29;20137;-61
2022/06/16 13:19:06;;;;;;;5.00;2.20;;;25.60;73.20;;;;;;4822628;29;20042;-62
2022/06/16 13:21:37;;;;;;;5.60;2.38;;;25.60;74.00;;;;;;4822182;29;20465;-61
2022/06/16 13:24:23;;;;;;;4.82;2.30;;;25.60;73.20;;;;;;4822484;29;20101;-60
2022/06/16 13:27:11;;;;;;;4.80;2.17;;;25.50;73.50;;;;;;4822747;29;20114;-60
2022/06/16 13:30:04;;;;;;;3.75;2.00;;;25.30;74.20;;;;;;4822911;29;20062;-63
2022/06/16 13:32:33;;;;;;;5.13;2.38;;;25.40;74.10;;;;;;4822990;29;20057;-61